sensor_id;sensor_type;location;lat;lon;timestamp;P1;durP1;ratioP1;P2;durP2;ratioP2
54871;SDS011;43914;57.680;11.982;2024-03-08T00:00:07;11.00;;;4.50;;
54871;SDS011;43914;57.680;11.982;2024-03-08T00:02:40;11.20;;;4.70;;
54871;SDS011;43914;57.680;11.982;2024-03-08T00:05:19;15.30;;;5.40;;
54871;SDS011;43914;57.680;11.982;2024-03-08T00:07:45;14.80;;;5.00;;
54871;SDS011;43914;57.680;11.982;2024-03-08T00:10:11;14.50;;;4.90;;
54871;SDS011;43914;57.680;11.982;2024-03-08T00:12:41;12.00;;;5.30;;
54871;SDS011;43914;57.680;11.982;2024-03-08T00:15:12;11.50;;;5.30;;
54871;SDS011;43914;57.680;11.982;2024-03-08T00:17:40;11.10;;;5.20;;
54871;SDS011;43914;57.680;11.982;2024-03-08T00:20:06;15.90;;;6.00;;
54871;SDS011;43914;57.680;11.982;2024-03-08T00:22:36;11.90;;;4.90;;
54871;SDS011;43914;57.680;11.982;2024-03-08T00:25:03;12.40;;;5.10;;
54871;SDS011;43914;57.680;11.982;2024-03-08T00:27:30;12.10;;;4.70;;
54871;SDS011;43914;57.680;11.982;2024-03-08T00:29:56;11.20;;;5.10;;
54871;SDS011;43914;57.680;11.982;2024-03-08T00:32:25;12.20;;;5.00;;
54871;SDS011;43914;57.680;11.982;2024-03-08T00:34:54;12.50;;;5.20;;
54871;SDS011;43914;57.680;11.982;2024-03-08T00:37:20;10.80;;;5.30;;
54871;SDS011;43914;57.680;11.982;2024-03-08T00:39:52;10.80;;;5.10;;
54871;SDS011;43914;57.680;11.982;2024-03-08T00:42:19;11.90;;;4.90;;
54871;SDS011;43914;57.680;11.982;2024-03-08T00:44:45;11.70;;;5.60;;
54871;SDS011;43914;57.680;11.982;2024-03-08T00:47:13;10.30;;;4.80;;
54871;SDS011;43914;57.680;11.982;2024-03-08T00:49:41;12.90;;;5.20;;
54871;SDS011;43914;57.680;11.982;2024-03-08T00:52:07;13.10;;;4.80;;
54871;SDS011;43914;57.680;11.982;2024-03-08T00:54:33;15.00;;;5.40;;
54871;SDS011;43914;57.680;11.982;2024-03-08T00:56:59;11.40;;;4.90;;
54871;SDS011;43914;57.680;11.982;2024-03-08T00:59:28;13.40;;;5.10;;
54871;SDS011;43914;57.680;11.982;2024-03-08T01:01:54;12.10;;;4.70;;
54871;SDS011;43914;57.680;11.982;2024-03-08T01:04:19;12.20;;;5.60;;
54871;SDS011;43914;57.680;11.982;2024-03-08T01:06:46;10.60;;;5.00;;
54871;SDS011;43914;57.680;11.982;2024-03-08T01:09:15;13.40;;;5.00;;
54871;SDS011;43914;57.680;11.982;2024-03-08T01:11:42;12.30;;;5.40;;
54871;SDS011;43914;57.680;11.982;2024-03-08T01:14:09;11.70;;;5.00;;
54871;SDS011;43914;57.680;11.982;2024-03-08T01:16:35;13.30;;;5.40;;
54871;SDS011;43914;57.680;11.982;2024-03-08T01:19:00;11.00;;;4.90;;
54871;SDS011;43914;57.680;11.982;2024-03-08T01:21:28;10.80;;;5.00;;
54871;SDS011;43914;57.680;11.982;2024-03-08T01:23:53;12.50;;;5.30;;
54871;SDS011;43914;57.680;11.982;2024-03-08T01:26:19;11.20;;;5.10;;
54871;SDS011;43914;57.680;11.982;2024-03-08T01:28:44;13.40;;;5.60;;
54871;SDS011;43914;57.680;11.982;2024-03-08T01:31:09;11.50;;;4.90;;
54871;SDS011;43914;57.680;11.982;2024-03-08T01:33:35;11.60;;;4.80;;
54871;SDS011;43914;57.680;11.982;2024-03-08T01:36:00;11.80;;;5.10;;
54871;SDS011;43914;57.680;11.982;2024-03-08T01:38:27;13.80;;;5.30;;
54871;SDS011;43914;57.680;11.982;2024-03-08T01:40:53;13.30;;;4.80;;
54871;SDS011;43914;57.680;11.982;2024-03-08T01:43:22;12.60;;;4.90;;
54871;SDS011;43914;57.680;11.982;2024-03-08T01:45:55;13.30;;;4.80;;
54871;SDS011;43914;57.680;11.982;2024-03-08T01:48:23;11.50;;;5.10;;
54871;SDS011;43914;57.680;11.982;2024-03-08T01:50:50;12.80;;;5.30;;
54871;SDS011;43914;57.680;11.982;2024-03-08T01:53:17;11.40;;;4.90;;
54871;SDS011;43914;57.680;11.982;2024-03-08T01:55:47;11.30;;;5.60;;
54871;SDS011;43914;57.680;11.982;2024-03-08T01:58:14;12.70;;;5.10;;
54871;SDS011;43914;57.680;11.982;2024-03-08T02:00:44;11.90;;;5.10;;
54871;SDS011;43914;57.680;11.982;2024-03-08T02:03:10;13.20;;;5.50;;
54871;SDS011;43914;57.680;11.982;2024-03-08T02:05:37;12.70;;;5.30;;
54871;SDS011;43914;57.680;11.982;2024-03-08T02:08:05;12.90;;;5.90;;
54871;SDS011;43914;57.680;11.982;2024-03-08T02:10:38;12.20;;;6.10;;
54871;SDS011;43914;57.680;11.982;2024-03-08T02:13:04;16.10;;;6.50;;
54871;SDS011;43914;57.680;11.982;2024-03-08T02:16:03;15.80;;;6.00;;
54871;SDS011;43914;57.680;11.982;2024-03-08T02:18:26;12.70;;;6.30;;
54871;SDS011;43914;57.680;11.982;2024-03-08T02:23:23;12.10;;;4.90;;
54871;SDS011;43914;57.680;11.982;2024-03-08T02:25:52;11.70;;;5.50;;
54871;SDS011;43914;57.680;11.982;2024-03-08T02:28:19;13.10;;;5.30;;
54871;SDS011;43914;57.680;11.982;2024-03-08T02:30:49;13.40;;;5.70;;
54871;SDS011;43914;57.680;11.982;2024-03-08T02:33:21;12.70;;;5.20;;
54871;SDS011;43914;57.680;11.982;2024-03-08T02:35:48;11.60;;;5.70;;
54871;SDS011;43914;57.680;11.982;2024-03-08T02:38:19;15.10;;;6.10;;
54871;SDS011;43914;57.680;11.982;2024-03-08T02:40:47;15.60;;;6.10;;
54871;SDS011;43914;57.680;11.982;2024-03-08T02:43:15;15.80;;;6.80;;
54871;SDS011;43914;57.680;11.982;2024-03-08T02:45:47;13.00;;;6.00;;
54871;SDS011;43914;57.680;11.982;2024-03-08T02:48:13;14.50;;;5.80;;
54871;SDS011;43914;57.680;11.982;2024-03-08T02:50:39;12.80;;;6.00;;
54871;SDS011;43914;57.680;11.982;2024-03-08T02:53:05;12.90;;;6.20;;
54871;SDS011;43914;57.680;11.982;2024-03-08T02:55:32;10.50;;;5.00;;
54871;SDS011;43914;57.680;11.982;2024-03-08T02:58:01;12.90;;;5.70;;
54871;SDS011;43914;57.680;11.982;2024-03-08T03:00:31;14.30;;;6.50;;
54871;SDS011;43914;57.680;11.982;2024-03-08T03:02:57;13.40;;;5.90;;
54871;SDS011;43914;57.680;11.982;2024-03-08T03:05:23;11.80;;;5.40;;
54871;SDS011;43914;57.680;11.982;2024-03-08T03:07:49;13.10;;;6.20;;
54871;SDS011;43914;57.680;11.982;2024-03-08T03:10:18;12.80;;;5.80;;
54871;SDS011;43914;57.680;11.982;2024-03-08T03:12:45;13.40;;;6.30;;
54871;SDS011;43914;57.680;11.982;2024-03-08T03:15:11;12.50;;;6.60;;
54871;SDS011;43914;57.680;11.982;2024-03-08T03:17:38;18.90;;;6.70;;
54871;SDS011;43914;57.680;11.982;2024-03-08T03:20:06;14.00;;;7.10;;
54871;SDS011;43914;57.680;11.982;2024-03-08T03:22:38;16.10;;;7.50;;
54871;SDS011;43914;57.680;11.982;2024-03-08T03:25:06;13.40;;;7.40;;
54871;SDS011;43914;57.680;11.982;2024-03-08T03:27:34;15.30;;;7.30;;
54871;SDS011;43914;57.680;11.982;2024-03-08T03:30:01;16.50;;;7.60;;
54871;SDS011;43914;57.680;11.982;2024-03-08T03:32:46;15.10;;;7.70;;
54871;SDS011;43914;57.680;11.982;2024-03-08T03:35:16;15.10;;;7.60;;
54871;SDS011;43914;57.680;11.982;2024-03-08T03:37:43;16.60;;;7.50;;
54871;SDS011;43914;57.680;11.982;2024-03-08T03:40:16;15.90;;;8.30;;
54871;SDS011;43914;57.680;11.982;2024-03-08T03:42:44;14.90;;;7.10;;
54871;SDS011;43914;57.680;11.982;2024-03-08T03:45:10;16.30;;;8.00;;
54871;SDS011;43914;57.680;11.982;2024-03-08T03:47:36;14.70;;;7.60;;
54871;SDS011;43914;57.680;11.982;2024-03-08T03:50:04;16.30;;;7.60;;
54871;SDS011;43914;57.680;11.982;2024-03-08T03:52:30;15.10;;;7.20;;
54871;SDS011;43914;57.680;11.982;2024-03-08T03:54:56;18.70;;;8.00;;
54871;SDS011;43914;57.680;11.982;2024-03-08T03:57:22;17.80;;;7.80;;
54871;SDS011;43914;57.680;11.982;2024-03-08T03:59:48;17.80;;;7.80;;
54871;SDS011;43914;57.680;11.982;2024-03-08T04:02:14;15.10;;;7.40;;
54871;SDS011;43914;57.680;11.982;2024-03-08T04:04:40;16.20;;;6.90;;
54871;SDS011;43914;57.680;11.982;2024-03-08T04:07:06;18.20;;;7.40;;
54871;SDS011;43914;57.680;11.982;2024-03-08T04:09:32;13.80;;;6.60;;
54871;SDS011;43914;57.680;11.982;2024-03-08T04:11:59;15.00;;;6.30;;
54871;SDS011;43914;57.680;11.982;2024-03-08T04:14:26;18.50;;;7.90;;
54871;SDS011;43914;57.680;11.982;2024-03-08T04:16:51;15.60;;;8.00;;
54871;SDS011;43914;57.680;11.982;2024-03-08T04:19:17;19.30;;;8.00;;
54871;SDS011;43914;57.680;11.982;2024-03-08T04:21:44;14.20;;;7.20;;
54871;SDS011;43914;57.680;11.982;2024-03-08T04:24:10;15.10;;;7.70;;
54871;SDS011;43914;57.680;11.982;2024-03-08T04:26:35;16.10;;;7.70;;
54871;SDS011;43914;57.680;11.982;2024-03-08T04:29:01;15.40;;;6.90;;
54871;SDS011;43914;57.680;11.982;2024-03-08T04:31:26;15.20;;;7.60;;
54871;SDS011;43914;57.680;11.982;2024-03-08T04:33:52;16.70;;;7.80;;
54871;SDS011;43914;57.680;11.982;2024-03-08T04:36:18;15.10;;;7.60;;
54871;SDS011;43914;57.680;11.982;2024-03-08T04:38:45;14.00;;;7.60;;
54871;SDS011;43914;57.680;11.982;2024-03-08T04:41:10;16.40;;;7.50;;
54871;SDS011;43914;57.680;11.982;2024-03-08T04:43:36;16.10;;;7.20;;
54871;SDS011;43914;57.680;11.982;2024-03-08T04:46:03;16.50;;;7.30;;
54871;SDS011;43914;57.680;11.982;2024-03-08T04:48:29;15.60;;;7.10;;
54871;SDS011;43914;57.680;11.982;2024-03-08T04:50:54;14.90;;;7.10;;
54871;SDS011;43914;57.680;11.982;2024-03-08T04:53:21;18.30;;;7.70;;
54871;SDS011;43914;57.680;11.982;2024-03-08T04:55:47;14.50;;;6.80;;
54871;SDS011;43914;57.680;11.982;2024-03-08T04:58:12;14.60;;;7.00;;
54871;SDS011;43914;57.680;11.982;2024-03-08T05:00:38;19.20;;;7.50;;
54871;SDS011;43914;57.680;11.982;2024-03-08T05:03:03;13.80;;;6.60;;
54871;SDS011;43914;57.680;11.982;2024-03-08T05:05:30;14.40;;;7.40;;
54871;SDS011;43914;57.680;11.982;2024-03-08T05:07:56;15.30;;;7.10;;
54871;SDS011;43914;57.680;11.982;2024-03-08T05:10:21;16.20;;;6.90;;
54871;SDS011;43914;57.680;11.982;2024-03-08T05:12:47;12.70;;;6.40;;
54871;SDS011;43914;57.680;11.982;2024-03-08T05:15:12;16.10;;;6.90;;
54871;SDS011;43914;57.680;11.982;2024-03-08T05:17:38;12.90;;;6.60;;
54871;SDS011;43914;57.680;11.982;2024-03-08T05:20:05;13.20;;;6.00;;
54871;SDS011;43914;57.680;11.982;2024-03-08T05:22:33;13.70;;;6.50;;
54871;SDS011;43914;57.680;11.982;2024-03-08T05:24:59;15.50;;;7.30;;
54871;SDS011;43914;57.680;11.982;2024-03-08T05:27:24;12.00;;;6.10;;
54871;SDS011;43914;57.680;11.982;2024-03-08T05:29:50;15.80;;;6.80;;
54871;SDS011;43914;57.680;11.982;2024-03-08T05:32:15;17.20;;;7.10;;
54871;SDS011;43914;57.680;11.982;2024-03-08T05:34:41;15.00;;;6.60;;
54871;SDS011;43914;57.680;11.982;2024-03-08T05:37:06;13.50;;;5.80;;
54871;SDS011;43914;57.680;11.982;2024-03-08T05:39:32;14.20;;;6.60;;
54871;SDS011;43914;57.680;11.982;2024-03-08T05:41:57;13.40;;;6.20;;
54871;SDS011;43914;57.680;11.982;2024-03-08T05:44:23;16.00;;;6.90;;
54871;SDS011;43914;57.680;11.982;2024-03-08T05:46:49;14.80;;;6.20;;
54871;SDS011;43914;57.680;11.982;2024-03-08T05:49:16;14.70;;;6.20;;
54871;SDS011;43914;57.680;11.982;2024-03-08T05:51:41;15.00;;;6.80;;
54871;SDS011;43914;57.680;11.982;2024-03-08T05:54:08;13.70;;;6.10;;
54871;SDS011;43914;57.680;11.982;2024-03-08T05:56:36;14.70;;;6.20;;
54871;SDS011;43914;57.680;11.982;2024-03-08T05:59:03;12.70;;;6.10;;
54871;SDS011;43914;57.680;11.982;2024-03-08T06:01:29;14.20;;;6.50;;
54871;SDS011;43914;57.680;11.982;2024-03-08T06:04:01;15.40;;;6.30;;
54871;SDS011;43914;57.680;11.982;2024-03-08T06:06:28;14.10;;;7.10;;
54871;SDS011;43914;57.680;11.982;2024-03-08T06:08:54;13.50;;;6.80;;
54871;SDS011;43914;57.680;11.982;2024-03-08T06:11:21;17.30;;;7.60;;
54871;SDS011;43914;57.680;11.982;2024-03-08T06:13:47;17.60;;;6.30;;
54871;SDS011;43914;57.680;11.982;2024-03-08T06:16:13;12.30;;;6.10;;
54871;SDS011;43914;57.680;11.982;2024-03-08T06:18:39;11.60;;;6.00;;
54871;SDS011;43914;57.680;11.982;2024-03-08T06:21:07;13.40;;;6.40;;
54871;SDS011;43914;57.680;11.982;2024-03-08T06:23:37;12.90;;;6.70;;
54871;SDS011;43914;57.680;11.982;2024-03-08T06:26:05;14.80;;;6.70;;
54871;SDS011;43914;57.680;11.982;2024-03-08T06:28:31;12.90;;;5.70;;
54871;SDS011;43914;57.680;11.982;2024-03-08T06:31:00;14.50;;;6.10;;
54871;SDS011;43914;57.680;11.982;2024-03-08T06:33:26;13.80;;;5.80;;
54871;SDS011;43914;57.680;11.982;2024-03-08T06:35:52;13.00;;;5.70;;
54871;SDS011;43914;57.680;11.982;2024-03-08T06:38:19;17.00;;;5.80;;
54871;SDS011;43914;57.680;11.982;2024-03-08T06:40:45;12.90;;;5.80;;
54871;SDS011;43914;57.680;11.982;2024-03-08T06:43:16;12.70;;;6.30;;
54871;SDS011;43914;57.680;11.982;2024-03-08T06:45:43;14.60;;;5.90;;
54871;SDS011;43914;57.680;11.982;2024-03-08T06:48:16;12.40;;;5.80;;
54871;SDS011;43914;57.680;11.982;2024-03-08T06:50:43;15.90;;;5.90;;
54871;SDS011;43914;57.680;11.982;2024-03-08T06:53:09;13.80;;;6.00;;
54871;SDS011;43914;57.680;11.982;2024-03-08T06:55:35;13.30;;;5.40;;
54871;SDS011;43914;57.680;11.982;2024-03-08T06:58:00;12.20;;;5.70;;
54871;SDS011;43914;57.680;11.982;2024-03-08T07:00:27;10.10;;;5.40;;
54871;SDS011;43914;57.680;11.982;2024-03-08T07:02:54;12.20;;;6.00;;
54871;SDS011;43914;57.680;11.982;2024-03-08T07:05:19;17.40;;;5.80;;
54871;SDS011;43914;57.680;11.982;2024-03-08T07:07:45;12.90;;;5.90;;
54871;SDS011;43914;57.680;11.982;2024-03-08T07:10:14;15.60;;;6.80;;
54871;SDS011;43914;57.680;11.982;2024-03-08T07:12:40;19.70;;;6.80;;
54871;SDS011;43914;57.680;11.982;2024-03-08T07:15:07;14.60;;;6.00;;
54871;SDS011;43914;57.680;11.982;2024-03-08T07:17:33;12.60;;;5.60;;
54871;SDS011;43914;57.680;11.982;2024-03-08T07:20:00;16.10;;;6.60;;
54871;SDS011;43914;57.680;11.982;2024-03-08T07:22:36;17.40;;;5.90;;
54871;SDS011;43914;57.680;11.982;2024-03-08T07:25:02;19.30;;;5.70;;
54871;SDS011;43914;57.680;11.982;2024-03-08T07:27:53;14.20;;;6.30;;
54871;SDS011;43914;57.680;11.982;2024-03-08T07:30:24;16.10;;;6.10;;
54871;SDS011;43914;57.680;11.982;2024-03-08T07:33:06;15.40;;;5.90;;
54871;SDS011;43914;57.680;11.982;2024-03-08T07:35:39;17.20;;;6.50;;
54871;SDS011;43914;57.680;11.982;2024-03-08T07:38:07;12.80;;;5.60;;
54871;SDS011;43914;57.680;11.982;2024-03-08T07:40:38;12.70;;;5.60;;
54871;SDS011;43914;57.680;11.982;2024-03-08T07:43:09;13.40;;;5.60;;
54871;SDS011;43914;57.680;11.982;2024-03-08T07:45:35;11.90;;;5.80;;
54871;SDS011;43914;57.680;11.982;2024-03-08T07:48:01;16.20;;;5.90;;
54871;SDS011;43914;57.680;11.982;2024-03-08T07:50:28;11.60;;;5.80;;
54871;SDS011;43914;57.680;11.982;2024-03-08T07:52:54;15.40;;;5.40;;
54871;SDS011;43914;57.680;11.982;2024-03-08T07:55:20;16.80;;;5.50;;
54871;SDS011;43914;57.680;11.982;2024-03-08T07:57:49;16.90;;;5.80;;
54871;SDS011;43914;57.680;11.982;2024-03-08T08:00:14;12.30;;;5.10;;
54871;SDS011;43914;57.680;11.982;2024-03-08T08:02:43;13.70;;;4.80;;
54871;SDS011;43914;57.680;11.982;2024-03-08T08:05:11;10.70;;;4.90;;
54871;SDS011;43914;57.680;11.982;2024-03-08T08:07:36;11.20;;;4.80;;
54871;SDS011;43914;57.680;11.982;2024-03-08T08:10:02;10.90;;;4.60;;
54871;SDS011;43914;57.680;11.982;2024-03-08T08:12:27;11.60;;;4.80;;
54871;SDS011;43914;57.680;11.982;2024-03-08T08:14:54;9.50;;;4.60;;
54871;SDS011;43914;57.680;11.982;2024-03-08T08:17:19;11.50;;;5.30;;
54871;SDS011;43914;57.680;11.982;2024-03-08T08:19:45;9.60;;;4.80;;
54871;SDS011;43914;57.680;11.982;2024-03-08T08:22:11;11.30;;;4.00;;
54871;SDS011;43914;57.680;11.982;2024-03-08T08:24:36;9.20;;;4.00;;
54871;SDS011;43914;57.680;11.982;2024-03-08T08:27:02;9.40;;;3.90;;
54871;SDS011;43914;57.680;11.982;2024-03-08T08:29:28;10.50;;;4.10;;
54871;SDS011;43914;57.680;11.982;2024-03-08T08:31:54;11.00;;;4.10;;
54871;SDS011;43914;57.680;11.982;2024-03-08T08:34:19;10.20;;;4.00;;
54871;SDS011;43914;57.680;11.982;2024-03-08T08:36:47;10.00;;;4.00;;
54871;SDS011;43914;57.680;11.982;2024-03-08T08:39:12;10.10;;;4.40;;
54871;SDS011;43914;57.680;11.982;2024-03-08T08:41:38;12.80;;;4.50;;
54871;SDS011;43914;57.680;11.982;2024-03-08T08:44:06;10.70;;;3.80;;
54871;SDS011;43914;57.680;11.982;2024-03-08T08:46:35;10.50;;;4.40;;
54871;SDS011;43914;57.680;11.982;2024-03-08T08:49:05;7.40;;;2.70;;
54871;SDS011;43914;57.680;11.982;2024-03-08T08:51:31;11.70;;;3.90;;
54871;SDS011;43914;57.680;11.982;2024-03-08T08:53:58;10.20;;;4.30;;
54871;SDS011;43914;57.680;11.982;2024-03-08T08:56:25;8.20;;;3.50;;
54871;SDS011;43914;57.680;11.982;2024-03-08T08:58:51;15.80;;;4.00;;
54871;SDS011;43914;57.680;11.982;2024-03-08T09:01:20;11.60;;;4.00;;
54871;SDS011;43914;57.680;11.982;2024-03-08T09:03:45;10.20;;;4.20;;
54871;SDS011;43914;57.680;11.982;2024-03-08T09:06:15;14.50;;;3.60;;
54871;SDS011;43914;57.680;11.982;2024-03-08T09:08:42;10.90;;;3.50;;
54871;SDS011;43914;57.680;11.982;2024-03-08T09:11:09;9.70;;;4.00;;
54871;SDS011;43914;57.680;11.982;2024-03-08T09:13:35;13.20;;;3.90;;
54871;SDS011;43914;57.680;11.982;2024-03-08T09:16:02;11.90;;;4.00;;
54871;SDS011;43914;57.680;11.982;2024-03-08T09:18:30;10.10;;;3.50;;
54871;SDS011;43914;57.680;11.982;2024-03-08T09:20:57;8.10;;;3.20;;
54871;SDS011;43914;57.680;11.982;2024-03-08T09:23:22;9.00;;;3.20;;
54871;SDS011;43914;57.680;11.982;2024-03-08T09:25:49;8.00;;;3.30;;
54871;SDS011;43914;57.680;11.982;2024-03-08T09:28:14;11.50;;;3.30;;
54871;SDS011;43914;57.680;11.982;2024-03-08T09:30:41;10.10;;;3.10;;
54871;SDS011;43914;57.680;11.982;2024-03-08T09:33:06;10.90;;;3.10;;
54871;SDS011;43914;57.680;11.982;2024-03-08T09:35:32;8.00;;;3.20;;
54871;SDS011;43914;57.680;11.982;2024-03-08T09:37:58;8.30;;;2.90;;
54871;SDS011;43914;57.680;11.982;2024-03-08T09:40:24;12.50;;;3.00;;
54871;SDS011;43914;57.680;11.982;2024-03-08T09:42:50;7.70;;;2.60;;
54871;SDS011;43914;57.680;11.982;2024-03-08T09:45:17;9.10;;;2.90;;
54871;SDS011;43914;57.680;11.982;2024-03-08T09:47:47;9.80;;;3.00;;
54871;SDS011;43914;57.680;11.982;2024-03-08T09:50:14;8.50;;;2.80;;
54871;SDS011;43914;57.680;11.982;2024-03-08T09:52:39;10.30;;;3.20;;
54871;SDS011;43914;57.680;11.982;2024-03-08T09:55:05;7.60;;;2.80;;
54871;SDS011;43914;57.680;11.982;2024-03-08T09:57:32;9.50;;;2.70;;
54871;SDS011;43914;57.680;11.982;2024-03-08T09:59:59;9.20;;;3.20;;
54871;SDS011;43914;57.680;11.982;2024-03-08T10:02:24;8.70;;;2.70;;
54871;SDS011;43914;57.680;11.982;2024-03-08T10:04:51;10.80;;;3.00;;
54871;SDS011;43914;57.680;11.982;2024-03-08T10:07:18;8.70;;;2.80;;
54871;SDS011;43914;57.680;11.982;2024-03-08T10:09:43;9.30;;;3.00;;
54871;SDS011;43914;57.680;11.982;2024-03-08T10:12:15;10.40;;;2.60;;
54871;SDS011;43914;57.680;11.982;2024-03-08T10:14:42;7.50;;;2.90;;
54871;SDS011;43914;57.680;11.982;2024-03-08T10:17:08;10.70;;;2.70;;
54871;SDS011;43914;57.680;11.982;2024-03-08T10:19:33;8.10;;;2.60;;
54871;SDS011;43914;57.680;11.982;2024-03-08T10:21:59;9.00;;;2.60;;
54871;SDS011;43914;57.680;11.982;2024-03-08T10:24:25;11.20;;;2.50;;
54871;SDS011;43914;57.680;11.982;2024-03-08T10:26:52;8.00;;;2.70;;
54871;SDS011;43914;57.680;11.982;2024-03-08T10:29:18;8.80;;;2.60;;
54871;SDS011;43914;57.680;11.982;2024-03-08T10:31:45;8.90;;;2.60;;
54871;SDS011;43914;57.680;11.982;2024-03-08T10:34:11;14.90;;;2.80;;
54871;SDS011;43914;57.680;11.982;2024-03-08T10:36:36;9.00;;;2.30;;
54871;SDS011;43914;57.680;11.982;2024-03-08T10:39:06;8.40;;;2.70;;
54871;SDS011;43914;57.680;11.982;2024-03-08T10:41:46;13.20;;;2.70;;
54871;SDS011;43914;57.680;11.982;2024-03-08T10:47:00;9.60;;;2.40;;
54871;SDS011;43914;57.680;11.982;2024-03-08T10:49:31;8.30;;;2.60;;
54871;SDS011;43914;57.680;11.982;2024-03-08T10:52:04;7.70;;;2.50;;
54871;SDS011;43914;57.680;11.982;2024-03-08T10:54:33;10.80;;;2.50;;
54871;SDS011;43914;57.680;11.982;2024-03-08T10:57:03;7.80;;;2.70;;
54871;SDS011;43914;57.680;11.982;2024-03-08T10:59:31;7.70;;;2.50;;
54871;SDS011;43914;57.680;11.982;2024-03-08T11:01:59;7.80;;;2.70;;
54871;SDS011;43914;57.680;11.982;2024-03-08T11:04:25;7.90;;;2.60;;
54871;SDS011;43914;57.680;11.982;2024-03-08T11:06:50;8.90;;;2.40;;
54871;SDS011;43914;57.680;11.982;2024-03-08T11:09:37;8.40;;;2.40;;
54871;SDS011;43914;57.680;11.982;2024-03-08T11:15:10;8.50;;;2.40;;
54871;SDS011;43914;57.680;11.982;2024-03-08T11:20:08;8.20;;;2.60;;
54871;SDS011;43914;57.680;11.982;2024-03-08T11:22:59;8.10;;;2.60;;
54871;SDS011;43914;57.680;11.982;2024-03-08T11:25:40;8.50;;;2.40;;
54871;SDS011;43914;57.680;11.982;2024-03-08T11:28:12;7.90;;;2.40;;
54871;SDS011;43914;57.680;11.982;2024-03-08T11:30:43;12.60;;;2.50;;
54871;SDS011;43914;57.680;11.982;2024-03-08T11:33:34;9.80;;;2.50;;
54871;SDS011;43914;57.680;11.982;2024-03-08T11:38:42;8.10;;;2.20;;
54871;SDS011;43914;57.680;11.982;2024-03-08T11:41:16;11.50;;;2.30;;
54871;SDS011;43914;57.680;11.982;2024-03-08T11:43:45;12.10;;;2.70;;
54871;SDS011;43914;57.680;11.982;2024-03-08T11:46:11;7.10;;;2.70;;
54871;SDS011;43914;57.680;11.982;2024-03-08T11:48:39;6.20;;;2.30;;
54871;SDS011;43914;57.680;11.982;2024-03-08T11:51:08;6.50;;;2.30;;
54871;SDS011;43914;57.680;11.982;2024-03-08T11:53:35;6.30;;;2.20;;
54871;SDS011;43914;57.680;11.982;2024-03-08T11:56:08;7.90;;;2.10;;
54871;SDS011;43914;57.680;11.982;2024-03-08T11:58:38;12.40;;;4.00;;
54871;SDS011;43914;57.680;11.982;2024-03-08T12:01:11;6.90;;;2.20;;
54871;SDS011;43914;57.680;11.982;2024-03-08T12:03:38;7.80;;;2.40;;
54871;SDS011;43914;57.680;11.982;2024-03-08T12:06:04;6.30;;;2.20;;
54871;SDS011;43914;57.680;11.982;2024-03-08T12:08:30;9.80;;;2.70;;
54871;SDS011;43914;57.680;11.982;2024-03-08T12:10:57;10.00;;;3.00;;
54871;SDS011;43914;57.680;11.982;2024-03-08T12:13:32;7.20;;;2.40;;
54871;SDS011;43914;57.680;11.982;2024-03-08T12:15:59;6.60;;;2.50;;
54871;SDS011;43914;57.680;11.982;2024-03-08T12:18:26;9.20;;;2.30;;
54871;SDS011;43914;57.680;11.982;2024-03-08T12:24:01;7.20;;;2.10;;
54871;SDS011;43914;57.680;11.982;2024-03-08T12:26:29;6.50;;;2.20;;
54871;SDS011;43914;57.680;11.982;2024-03-08T12:29:13;9.90;;;2.30;;
54871;SDS011;43914;57.680;11.982;2024-03-08T12:31:59;7.00;;;2.20;;
54871;SDS011;43914;57.680;11.982;2024-03-08T12:34:30;7.90;;;2.60;;
54871;SDS011;43914;57.680;11.982;2024-03-08T12:36:57;7.30;;;2.30;;
54871;SDS011;43914;57.680;11.982;2024-03-08T12:39:23;5.80;;;1.90;;
54871;SDS011;43914;57.680;11.982;2024-03-08T12:41:55;6.20;;;2.00;;
54871;SDS011;43914;57.680;11.982;2024-03-08T12:44:22;7.30;;;2.00;;
54871;SDS011;43914;57.680;11.982;2024-03-08T12:46:47;5.40;;;1.80;;
54871;SDS011;43914;57.680;11.982;2024-03-08T12:49:13;8.70;;;2.10;;
54871;SDS011;43914;57.680;11.982;2024-03-08T12:51:45;6.50;;;1.80;;
54871;SDS011;43914;57.680;11.982;2024-03-08T12:54:11;7.40;;;2.20;;
54871;SDS011;43914;57.680;11.982;2024-03-08T12:56:37;5.10;;;1.70;;
54871;SDS011;43914;57.680;11.982;2024-03-08T12:59:06;6.30;;;2.00;;
54871;SDS011;43914;57.680;11.982;2024-03-08T13:01:51;6.90;;;2.00;;
54871;SDS011;43914;57.680;11.982;2024-03-08T13:04:18;8.90;;;2.20;;
54871;SDS011;43914;57.680;11.982;2024-03-08T13:06:44;5.90;;;1.60;;
54871;SDS011;43914;57.680;11.982;2024-03-08T13:09:11;6.30;;;1.80;;
54871;SDS011;43914;57.680;11.982;2024-03-08T13:11:37;6.60;;;1.90;;
54871;SDS011;43914;57.680;11.982;2024-03-08T13:14:03;8.60;;;2.00;;
54871;SDS011;43914;57.680;11.982;2024-03-08T13:16:30;5.60;;;1.80;;
54871;SDS011;43914;57.680;11.982;2024-03-08T13:18:56;8.70;;;2.00;;
54871;SDS011;43914;57.680;11.982;2024-03-08T13:21:22;5.50;;;2.10;;
54871;SDS011;43914;57.680;11.982;2024-03-08T13:23:49;4.90;;;1.40;;
54871;SDS011;43914;57.680;11.982;2024-03-08T13:26:14;6.80;;;1.70;;
54871;SDS011;43914;57.680;11.982;2024-03-08T13:28:50;6.30;;;1.50;;
54871;SDS011;43914;57.680;11.982;2024-03-08T13:31:19;6.00;;;1.60;;
54871;SDS011;43914;57.680;11.982;2024-03-08T13:33:45;6.30;;;1.60;;
54871;SDS011;43914;57.680;11.982;2024-03-08T13:36:12;5.60;;;1.60;;
54871;SDS011;43914;57.680;11.982;2024-03-08T13:38:42;6.20;;;1.60;;
54871;SDS011;43914;57.680;11.982;2024-03-08T13:41:11;6.40;;;2.00;;
54871;SDS011;43914;57.680;11.982;2024-03-08T13:43:39;5.40;;;1.70;;
54871;SDS011;43914;57.680;11.982;2024-03-08T13:46:18;6.80;;;1.70;;
54871;SDS011;43914;57.680;11.982;2024-03-08T13:48:43;6.10;;;1.50;;
54871;SDS011;43914;57.680;11.982;2024-03-08T13:51:09;6.00;;;1.80;;
54871;SDS011;43914;57.680;11.982;2024-03-08T13:53:40;7.20;;;1.70;;
54871;SDS011;43914;57.680;11.982;2024-03-08T13:56:06;6.40;;;1.50;;
54871;SDS011;43914;57.680;11.982;2024-03-08T13:58:35;9.60;;;1.70;;
54871;SDS011;43914;57.680;11.982;2024-03-08T14:01:01;6.50;;;1.60;;
54871;SDS011;43914;57.680;11.982;2024-03-08T14:03:28;7.20;;;1.70;;
54871;SDS011;43914;57.680;11.982;2024-03-08T14:05:54;5.50;;;1.60;;
54871;SDS011;43914;57.680;11.982;2024-03-08T14:08:20;4.90;;;1.40;;
54871;SDS011;43914;57.680;11.982;2024-03-08T14:10:49;10.10;;;1.50;;
54871;SDS011;43914;57.680;11.982;2024-03-08T14:13:17;9.20;;;1.70;;
54871;SDS011;43914;57.680;11.982;2024-03-08T14:15:44;4.90;;;1.60;;
54871;SDS011;43914;57.680;11.982;2024-03-08T14:18:13;6.30;;;1.70;;
54871;SDS011;43914;57.680;11.982;2024-03-08T14:20:39;7.80;;;1.70;;
54871;SDS011;43914;57.680;11.982;2024-03-08T14:23:04;6.80;;;1.60;;
54871;SDS011;43914;57.680;11.982;2024-03-08T14:25:33;7.00;;;1.80;;
54871;SDS011;43914;57.680;11.982;2024-03-08T14:27:59;7.00;;;1.60;;
54871;SDS011;43914;57.680;11.982;2024-03-08T14:30:28;6.30;;;1.40;;
54871;SDS011;43914;57.680;11.982;2024-03-08T14:33:07;8.60;;;2.10;;
54871;SDS011;43914;57.680;11.982;2024-03-08T14:35:36;6.20;;;1.50;;
54871;SDS011;43914;57.680;11.982;2024-03-08T14:38:02;7.70;;;1.90;;
54871;SDS011;43914;57.680;11.982;2024-03-08T14:40:28;9.70;;;1.90;;
54871;SDS011;43914;57.680;11.982;2024-03-08T14:42:55;5.80;;;1.80;;
54871;SDS011;43914;57.680;11.982;2024-03-08T14:45:21;7.70;;;2.30;;